sensor_id;sensor_type;location;lat;lon;timestamp;P1;durP1;ratioP1;P2;durP2;ratioP2
7231;SDS011;3657;49.630;11.018;2022-11-12T00:00:10;19.13;;;17.87;;
7231;SDS011;3657;49.630;11.018;2022-11-12T00:02:38;18.87;;;17.57;;
7231;SDS011;3657;49.630;11.018;2022-11-12T00:05:04;17.97;;;16.70;;
7231;SDS011;3657;49.630;11.018;2022-11-12T00:07:31;18.27;;;17.10;;
7231;SDS011;3657;49.630;11.018;2022-11-12T00:09:58;20.23;;;18.83;;
7231;SDS011;3657;49.630;11.018;2022-11-12T00:12:25;18.30;;;17.13;;
7231;SDS011;3657;49.630;11.018;2022-11-12T00:14:53;16.37;;;15.43;;
7231;SDS011;3657;49.630;11.018;2022-11-12T00:17:20;17.93;;;16.73;;
7231;SDS011;3657;49.630;11.018;2022-11-12T00:19:46;18.30;;;17.00;;
7231;SDS011;3657;49.630;11.018;2022-11-12T00:22:13;16.83;;;15.83;;
7231;SDS011;3657;49.630;11.018;2022-11-12T00:24:40;16.83;;;15.73;;
7231;SDS011;3657;49.630;11.018;2022-11-12T00:27:06;17.40;;;16.20;;
7231;SDS011;3657;49.630;11.018;2022-11-12T00:29:33;17.03;;;16.03;;
7231;SDS011;3657;49.630;11.018;2022-11-12T00:32:01;16.63;;;15.53;;
7231;SDS011;3657;49.630;11.018;2022-11-12T00:34:28;16.67;;;15.50;;
7231;SDS011;3657;49.630;11.018;2022-11-12T00:36:55;16.70;;;15.67;;
7231;SDS011;3657;49.630;11.018;2022-11-12T00:39:22;16.33;;;15.33;;
7231;SDS011;3657;49.630;11.018;2022-11-12T00:41:48;16.70;;;15.37;;
7231;SDS011;3657;49.630;11.018;2022-11-12T00:44:15;15.93;;;15.03;;
7231;SDS011;3657;49.630;11.018;2022-11-12T00:46:42;15.93;;;14.93;;
7231;SDS011;3657;49.630;11.018;2022-11-12T00:49:10;17.67;;;16.07;;
7231;SDS011;3657;49.630;11.018;2022-11-12T00:51:37;16.57;;;15.57;;
7231;SDS011;3657;49.630;11.018;2022-11-12T00:54:04;16.93;;;15.93;;
7231;SDS011;3657;49.630;11.018;2022-11-12T00:56:31;17.97;;;16.77;;
7231;SDS011;3657;49.630;11.018;2022-11-12T00:58:58;16.87;;;15.77;;
7231;SDS011;3657;49.630;11.018;2022-11-12T01:01:25;12.97;;;12.27;;
7231;SDS011;3657;49.630;11.018;2022-11-12T01:03:52;16.93;;;15.87;;
7231;SDS011;3657;49.630;11.018;2022-11-12T01:06:20;17.67;;;16.47;;
7231;SDS011;3657;49.630;11.018;2022-11-12T01:08:48;16.80;;;15.90;;
7231;SDS011;3657;49.630;11.018;2022-11-12T01:11:16;17.33;;;16.33;;
7231;SDS011;3657;49.630;11.018;2022-11-12T01:13:45;17.17;;;16.00;;
7231;SDS011;3657;49.630;11.018;2022-11-12T01:16:14;17.27;;;16.27;;
7231;SDS011;3657;49.630;11.018;2022-11-12T01:18:43;16.77;;;15.77;;
7231;SDS011;3657;49.630;11.018;2022-11-12T01:21:11;17.43;;;16.33;;
7231;SDS011;3657;49.630;11.018;2022-11-12T01:23:40;16.97;;;15.97;;
7231;SDS011;3657;49.630;11.018;2022-11-12T01:26:08;15.83;;;14.93;;
7231;SDS011;3657;49.630;11.018;2022-11-12T01:28:36;17.43;;;16.33;;
7231;SDS011;3657;49.630;11.018;2022-11-12T01:31:12;15.80;;;15.00;;
7231;SDS011;3657;49.630;11.018;2022-11-12T01:33:41;16.70;;;15.87;;
7231;SDS011;3657;49.630;11.018;2022-11-12T01:36:10;16.40;;;15.40;;
7231;SDS011;3657;49.630;11.018;2022-11-12T01:38:38;16.30;;;15.30;;
7231;SDS011;3657;49.630;11.018;2022-11-12T01:41:07;15.87;;;14.97;;
7231;SDS011;3657;49.630;11.018;2022-11-12T01:43:36;16.50;;;15.50;;
7231;SDS011;3657;49.630;11.018;2022-11-12T01:46:03;16.43;;;15.47;;
7231;SDS011;3657;49.630;11.018;2022-11-12T01:48:38;15.23;;;14.43;;
7231;SDS011;3657;49.630;11.018;2022-11-12T01:51:08;15.43;;;14.63;;
7231;SDS011;3657;49.630;11.018;2022-11-12T01:53:37;14.57;;;13.77;;
7231;SDS011;3657;49.630;11.018;2022-11-12T01:56:10;15.33;;;14.53;;
7231;SDS011;3657;49.630;11.018;2022-11-12T01:58:38;15.70;;;14.80;;
7231;SDS011;3657;49.630;11.018;2022-11-12T02:01:05;15.87;;;14.90;;
7231;SDS011;3657;49.630;11.018;2022-11-12T02:03:32;15.80;;;14.93;;
7231;SDS011;3657;49.630;11.018;2022-11-12T02:05:59;15.87;;;14.93;;
7231;SDS011;3657;49.630;11.018;2022-11-12T02:08:31;15.50;;;14.70;;
7231;SDS011;3657;49.630;11.018;2022-11-12T02:11:05;14.63;;;13.90;;
7231;SDS011;3657;49.630;11.018;2022-11-12T02:13:37;15.87;;;14.97;;
7231;SDS011;3657;49.630;11.018;2022-11-12T02:16:21;15.17;;;14.30;;
7231;SDS011;3657;49.630;11.018;2022-11-12T02:18:48;15.20;;;14.40;;
7231;SDS011;3657;49.630;11.018;2022-11-12T02:21:18;14.37;;;13.67;;
7231;SDS011;3657;49.630;11.018;2022-11-12T02:23:45;14.90;;;14.20;;
7231;SDS011;3657;49.630;11.018;2022-11-12T02:26:11;18.23;;;16.67;;
7231;SDS011;3657;49.630;11.018;2022-11-12T02:28:38;15.20;;;14.40;;
7231;SDS011;3657;49.630;11.018;2022-11-12T02:31:05;15.73;;;14.87;;
7231;SDS011;3657;49.630;11.018;2022-11-12T02:33:32;15.77;;;14.77;;
7231;SDS011;3657;49.630;11.018;2022-11-12T02:35:59;13.60;;;13.00;;
7231;SDS011;3657;49.630;11.018;2022-11-12T02:38:27;15.47;;;14.50;;
7231;SDS011;3657;49.630;11.018;2022-11-12T02:40:53;14.93;;;14.23;;
7231;SDS011;3657;49.630;11.018;2022-11-12T02:43:20;14.87;;;14.17;;
7231;SDS011;3657;49.630;11.018;2022-11-12T02:45:47;14.43;;;13.73;;
7231;SDS011;3657;49.630;11.018;2022-11-12T02:48:14;14.07;;;13.43;;
7231;SDS011;3657;49.630;11.018;2022-11-12T02:50:40;13.93;;;13.20;;
7231;SDS011;3657;49.630;11.018;2022-11-12T02:53:07;12.93;;;12.33;;
7231;SDS011;3657;49.630;11.018;2022-11-12T02:55:35;13.73;;;13.03;;
7231;SDS011;3657;49.630;11.018;2022-11-12T02:58:02;13.03;;;12.43;;
7231;SDS011;3657;49.630;11.018;2022-11-12T03:00:28;13.43;;;12.80;;
7231;SDS011;3657;49.630;11.018;2022-11-12T03:02:55;13.03;;;12.43;;
7231;SDS011;3657;49.630;11.018;2022-11-12T03:05:28;12.50;;;11.93;;
7231;SDS011;3657;49.630;11.018;2022-11-12T03:07:56;11.80;;;11.37;;
7231;SDS011;3657;49.630;11.018;2022-11-12T03:10:24;11.70;;;11.30;;
7231;SDS011;3657;49.630;11.018;2022-11-12T03:12:52;12.73;;;12.23;;
7231;SDS011;3657;49.630;11.018;2022-11-12T03:15:21;12.63;;;12.10;;
7231;SDS011;3657;49.630;11.018;2022-11-12T03:17:48;11.27;;;10.77;;
7231;SDS011;3657;49.630;11.018;2022-11-12T03:20:15;12.23;;;11.73;;
7231;SDS011;3657;49.630;11.018;2022-11-12T03:22:42;11.70;;;11.23;;
7231;SDS011;3657;49.630;11.018;2022-11-12T03:25:08;12.77;;;12.17;;
7231;SDS011;3657;49.630;11.018;2022-11-12T03:27:35;12.53;;;11.93;;
7231;SDS011;3657;49.630;11.018;2022-11-12T03:30:04;11.70;;;11.20;;
7231;SDS011;3657;49.630;11.018;2022-11-12T03:32:31;11.30;;;10.90;;
7231;SDS011;3657;49.630;11.018;2022-11-12T03:34:58;12.97;;;12.37;;
7231;SDS011;3657;49.630;11.018;2022-11-12T03:37:24;11.50;;;11.00;;
7231;SDS011;3657;49.630;11.018;2022-11-12T03:39:51;11.60;;;11.20;;
7231;SDS011;3657;49.630;11.018;2022-11-12T03:42:18;12.23;;;11.73;;
7231;SDS011;3657;49.630;11.018;2022-11-12T03:44:44;11.57;;;11.03;;
7231;SDS011;3657;49.630;11.018;2022-11-12T03:47:12;12.37;;;11.77;;
7231;SDS011;3657;49.630;11.018;2022-11-12T03:49:39;10.77;;;10.37;;
7231;SDS011;3657;49.630;11.018;2022-11-12T03:52:06;11.97;;;11.50;;
7231;SDS011;3657;49.630;11.018;2022-11-12T03:54:32;11.50;;;11.03;;
7231;SDS011;3657;49.630;11.018;2022-11-12T03:56:59;11.07;;;10.67;;
7231;SDS011;3657;49.630;11.018;2022-11-12T03:59:26;11.40;;;10.93;;
7231;SDS011;3657;49.630;11.018;2022-11-12T04:01:53;11.10;;;10.57;;
7231;SDS011;3657;49.630;11.018;2022-11-12T04:04:20;11.10;;;10.50;;
7231;SDS011;3657;49.630;11.018;2022-11-12T04:06:47;10.90;;;10.30;;
7231;SDS011;3657;49.630;11.018;2022-11-12T04:09:32;11.00;;;10.60;;
7231;SDS011;3657;49.630;11.018;2022-11-12T04:11:58;10.70;;;10.30;;
7231;SDS011;3657;49.630;11.018;2022-11-12T04:14:45;10.80;;;10.40;;
7231;SDS011;3657;49.630;11.018;2022-11-12T04:17:11;11.27;;;10.87;;
7231;SDS011;3657;49.630;11.018;2022-11-12T04:19:56;11.73;;;11.23;;
7231;SDS011;3657;49.630;11.018;2022-11-12T04:22:41;10.90;;;10.40;;
7231;SDS011;3657;49.630;11.018;2022-11-12T04:25:07;11.30;;;10.80;;
7231;SDS011;3657;49.630;11.018;2022-11-12T04:27:51;11.07;;;10.67;;
7231;SDS011;3657;49.630;11.018;2022-11-12T04:30:19;12.17;;;11.63;;
7231;SDS011;3657;49.630;11.018;2022-11-12T04:32:45;9.27;;;8.97;;
7231;SDS011;3657;49.630;11.018;2022-11-12T04:35:15;11.07;;;10.57;;
7231;SDS011;3657;49.630;11.018;2022-11-12T04:37:43;11.07;;;10.67;;
7231;SDS011;3657;49.630;11.018;2022-11-12T04:40:10;11.37;;;10.87;;
7231;SDS011;3657;49.630;11.018;2022-11-12T04:42:55;10.87;;;10.47;;
7231;SDS011;3657;49.630;11.018;2022-11-12T04:45:39;11.60;;;11.10;;
7231;SDS011;3657;49.630;11.018;2022-11-12T04:48:07;10.40;;;10.00;;
7231;SDS011;3657;49.630;11.018;2022-11-12T04:50:35;12.07;;;11.57;;
7231;SDS011;3657;49.630;11.018;2022-11-12T04:53:02;11.13;;;10.63;;
7231;SDS011;3657;49.630;11.018;2022-11-12T04:55:29;11.73;;;11.23;;
7231;SDS011;3657;49.630;11.018;2022-11-12T04:57:56;11.93;;;11.43;;
7231;SDS011;3657;49.630;11.018;2022-11-12T05:00:23;12.57;;;11.97;;
7231;SDS011;3657;49.630;11.018;2022-11-12T05:02:50;12.40;;;11.80;;
7231;SDS011;3657;49.630;11.018;2022-11-12T05:05:16;11.40;;;10.90;;
7231;SDS011;3657;49.630;11.018;2022-11-12T05:07:44;11.57;;;10.97;;
7231;SDS011;3657;49.630;11.018;2022-11-12T05:10:11;11.63;;;11.13;;
7231;SDS011;3657;49.630;11.018;2022-11-12T05:12:38;11.27;;;10.80;;
7231;SDS011;3657;49.630;11.018;2022-11-12T05:15:05;11.13;;;10.73;;
7231;SDS011;3657;49.630;11.018;2022-11-12T05:17:32;10.40;;;10.00;;
7231;SDS011;3657;49.630;11.018;2022-11-12T05:19:59;10.90;;;10.40;;
7231;SDS011;3657;49.630;11.018;2022-11-12T05:22:26;10.13;;;9.73;;
7231;SDS011;3657;49.630;11.018;2022-11-12T05:24:53;10.70;;;10.30;;
7231;SDS011;3657;49.630;11.018;2022-11-12T05:27:19;9.97;;;9.60;;
7231;SDS011;3657;49.630;11.018;2022-11-12T05:29:46;10.47;;;10.00;;
7231;SDS011;3657;49.630;11.018;2022-11-12T05:32:14;10.53;;;10.03;;
7231;SDS011;3657;49.630;11.018;2022-11-12T05:34:42;10.40;;;10.00;;
7231;SDS011;3657;49.630;11.018;2022-11-12T05:37:10;10.40;;;10.00;;
7231;SDS011;3657;49.630;11.018;2022-11-12T05:39:38;9.87;;;9.37;;
7231;SDS011;3657;49.630;11.018;2022-11-12T05:42:06;8.90;;;8.60;;
7231;SDS011;3657;49.630;11.018;2022-11-12T05:44:33;9.50;;;9.20;;
7231;SDS011;3657;49.630;11.018;2022-11-12T05:47:00;10.13;;;9.73;;
7231;SDS011;3657;49.630;11.018;2022-11-12T05:49:26;9.27;;;8.97;;
7231;SDS011;3657;49.630;11.018;2022-11-12T05:51:53;10.83;;;10.33;;
7231;SDS011;3657;49.630;11.018;2022-11-12T05:54:20;9.67;;;9.37;;
7231;SDS011;3657;49.630;11.018;2022-11-12T05:56:49;10.37;;;9.97;;
7231;SDS011;3657;49.630;11.018;2022-11-12T05:59:18;10.43;;;9.93;;
7231;SDS011;3657;49.630;11.018;2022-11-12T06:01:46;9.50;;;9.20;;
7231;SDS011;3657;49.630;11.018;2022-11-12T06:04:13;9.63;;;9.27;;
7231;SDS011;3657;49.630;11.018;2022-11-12T06:06:41;10.80;;;10.37;;
7231;SDS011;3657;49.630;11.018;2022-11-12T06:09:08;10.23;;;9.77;;
7231;SDS011;3657;49.630;11.018;2022-11-12T06:11:36;10.80;;;10.30;;
7231;SDS011;3657;49.630;11.018;2022-11-12T06:14:03;10.43;;;9.97;;
7231;SDS011;3657;49.630;11.018;2022-11-12T06:16:31;9.93;;;9.57;;
7231;SDS011;3657;49.630;11.018;2022-11-12T06:18:58;9.73;;;9.33;;
7231;SDS011;3657;49.630;11.018;2022-11-12T06:21:25;8.80;;;8.47;;
7231;SDS011;3657;49.630;11.018;2022-11-12T06:23:52;9.40;;;9.00;;
7231;SDS011;3657;49.630;11.018;2022-11-12T06:26:20;9.87;;;9.47;;
7231;SDS011;3657;49.630;11.018;2022-11-12T06:28:48;9.40;;;9.00;;
7231;SDS011;3657;49.630;11.018;2022-11-12T06:31:15;8.87;;;8.57;;
7231;SDS011;3657;49.630;11.018;2022-11-12T06:33:44;9.00;;;8.70;;
7231;SDS011;3657;49.630;11.018;2022-11-12T06:36:12;8.97;;;8.67;;
7231;SDS011;3657;49.630;11.018;2022-11-12T06:38:40;8.40;;;8.10;;
7231;SDS011;3657;49.630;11.018;2022-11-12T06:41:08;9.23;;;8.93;;
7231;SDS011;3657;49.630;11.018;2022-11-12T06:43:36;8.00;;;7.70;;
7231;SDS011;3657;49.630;11.018;2022-11-12T06:46:04;9.73;;;8.77;;
7231;SDS011;3657;49.630;11.018;2022-11-12T06:48:32;17.80;;;10.53;;
7231;SDS011;3657;49.630;11.018;2022-11-12T06:51:05;9.87;;;9.27;;
7231;SDS011;3657;49.630;11.018;2022-11-12T06:53:34;7.63;;;7.43;;
7231;SDS011;3657;49.630;11.018;2022-11-12T06:56:01;9.63;;;8.87;;
7231;SDS011;3657;49.630;11.018;2022-11-12T06:58:30;8.93;;;8.33;;
7231;SDS011;3657;49.630;11.018;2022-11-12T07:00:57;7.90;;;7.60;;
7231;SDS011;3657;49.630;11.018;2022-11-12T07:03:30;10.90;;;8.83;;
7231;SDS011;3657;49.630;11.018;2022-11-12T07:05:56;10.40;;;9.00;;
7231;SDS011;3657;49.630;11.018;2022-11-12T07:08:24;7.70;;;7.40;;
7231;SDS011;3657;49.630;11.018;2022-11-12T07:10:54;8.00;;;7.70;;
7231;SDS011;3657;49.630;11.018;2022-11-12T07:13:21;8.57;;;8.07;;
7231;SDS011;3657;49.630;11.018;2022-11-12T07:15:47;7.67;;;7.37;;
7231;SDS011;3657;49.630;11.018;2022-11-12T07:18:14;7.50;;;7.13;;
7231;SDS011;3657;49.630;11.018;2022-11-12T07:20:41;8.00;;;7.70;;
7231;SDS011;3657;49.630;11.018;2022-11-12T07:23:07;6.90;;;6.70;;
7231;SDS011;3657;49.630;11.018;2022-11-12T07:25:35;7.57;;;7.27;;
7231;SDS011;3657;49.630;11.018;2022-11-12T07:28:02;7.03;;;6.83;;
7231;SDS011;3657;49.630;11.018;2022-11-12T07:30:29;7.53;;;7.33;;
7231;SDS011;3657;49.630;11.018;2022-11-12T07:32:56;7.40;;;7.20;;
7231;SDS011;3657;49.630;11.018;2022-11-12T07:35:23;6.63;;;6.43;;
7231;SDS011;3657;49.630;11.018;2022-11-12T07:37:50;6.83;;;6.63;;
7231;SDS011;3657;49.630;11.018;2022-11-12T07:40:17;6.77;;;6.57;;
7231;SDS011;3657;49.630;11.018;2022-11-12T07:42:47;6.47;;;6.27;;
7231;SDS011;3657;49.630;11.018;2022-11-12T07:45:14;6.43;;;6.23;;
7231;SDS011;3657;49.630;11.018;2022-11-12T07:47:40;6.37;;;6.17;;
7231;SDS011;3657;49.630;11.018;2022-11-12T07:50:07;6.50;;;6.30;;
7231;SDS011;3657;49.630;11.018;2022-11-12T07:52:35;7.50;;;7.27;;
7231;SDS011;3657;49.630;11.018;2022-11-12T07:55:01;6.10;;;5.90;;
7231;SDS011;3657;49.630;11.018;2022-11-12T07:57:30;5.97;;;5.77;;
7231;SDS011;3657;49.630;11.018;2022-11-12T07:59:58;6.60;;;6.40;;
7231;SDS011;3657;49.630;11.018;2022-11-12T08:02:25;6.80;;;6.57;;
7231;SDS011;3657;49.630;11.018;2022-11-12T08:04:52;6.77;;;6.57;;
7231;SDS011;3657;49.630;11.018;2022-11-12T08:07:19;6.80;;;6.60;;
7231;SDS011;3657;49.630;11.018;2022-11-12T08:09:45;6.30;;;6.10;;
7231;SDS011;3657;49.630;11.018;2022-11-12T08:12:12;6.33;;;6.13;;
7231;SDS011;3657;49.630;11.018;2022-11-12T08:14:39;6.70;;;6.50;;
7231;SDS011;3657;49.630;11.018;2022-11-12T08:17:07;6.30;;;6.10;;
7231;SDS011;3657;49.630;11.018;2022-11-12T08:19:33;6.00;;;5.80;;
7231;SDS011;3657;49.630;11.018;2022-11-12T08:22:00;6.70;;;6.50;;
7231;SDS011;3657;49.630;11.018;2022-11-12T08:24:27;5.80;;;5.60;;
7231;SDS011;3657;49.630;11.018;2022-11-12T08:26:53;6.43;;;6.23;;
7231;SDS011;3657;49.630;11.018;2022-11-12T08:29:20;6.87;;;6.67;;
7231;SDS011;3657;49.630;11.018;2022-11-12T08:31:47;6.60;;;6.40;;
7231;SDS011;3657;49.630;11.018;2022-11-12T08:34:16;6.13;;;5.93;;
7231;SDS011;3657;49.630;11.018;2022-11-12T08:36:42;6.60;;;6.40;;
7231;SDS011;3657;49.630;11.018;2022-11-12T08:39:09;6.10;;;5.90;;
7231;SDS011;3657;49.630;11.018;2022-11-12T08:41:36;6.43;;;6.23;;
7231;SDS011;3657;49.630;11.018;2022-11-12T08:44:03;5.80;;;5.60;;
7231;SDS011;3657;49.630;11.018;2022-11-12T08:46:30;6.23;;;6.03;;
7231;SDS011;3657;49.630;11.018;2022-11-12T08:48:56;7.60;;;7.30;;
7231;SDS011;3657;49.630;11.018;2022-11-12T08:51:24;6.67;;;6.47;;
7231;SDS011;3657;49.630;11.018;2022-11-12T08:53:51;7.27;;;7.07;;
7231;SDS011;3657;49.630;11.018;2022-11-12T08:56:18;6.00;;;5.80;;
7231;SDS011;3657;49.630;11.018;2022-11-12T08:58:44;7.03;;;6.73;;
7231;SDS011;3657;49.630;11.018;2022-11-12T09:01:11;7.70;;;7.50;;
7231;SDS011;3657;49.630;11.018;2022-11-12T09:03:38;7.60;;;7.40;;
7231;SDS011;3657;49.630;11.018;2022-11-12T09:06:05;8.87;;;8.50;;
7231;SDS011;3657;49.630;11.018;2022-11-12T09:08:34;6.30;;;6.10;;
7231;SDS011;3657;49.630;11.018;2022-11-12T09:11:02;6.60;;;6.30;;
7231;SDS011;3657;49.630;11.018;2022-11-12T09:13:29;7.40;;;7.20;;
7231;SDS011;3657;49.630;11.018;2022-11-12T09:15:59;8.93;;;8.60;;
7231;SDS011;3657;49.630;11.018;2022-11-12T09:18:27;8.60;;;8.30;;
7231;SDS011;3657;49.630;11.018;2022-11-12T09:20:57;7.10;;;6.90;;
7231;SDS011;3657;49.630;11.018;2022-11-12T09:23:25;6.83;;;6.60;;
7231;SDS011;3657;49.630;11.018;2022-11-12T09:25:54;7.97;;;7.70;;
7231;SDS011;3657;49.630;11.018;2022-11-12T09:28:21;6.93;;;6.73;;
7231;SDS011;3657;49.630;11.018;2022-11-12T09:30:49;7.40;;;7.20;;
7231;SDS011;3657;49.630;11.018;2022-11-12T09:33:18;8.80;;;8.50;;
7231;SDS011;3657;49.630;11.018;2022-11-12T09:35:46;7.43;;;7.13;;
7231;SDS011;3657;49.630;11.018;2022-11-12T09:38:14;7.30;;;7.00;;
7231;SDS011;3657;49.630;11.018;2022-11-12T09:40:48;7.37;;;7.07;;
7231;SDS011;3657;49.630;11.018;2022-11-12T09:43:30;7.43;;;7.23;;
7231;SDS011;3657;49.630;11.018;2022-11-12T09:46:00;10.90;;;10.50;;
7231;SDS011;3657;49.630;11.018;2022-11-12T09:48:33;8.97;;;8.67;;
7231;SDS011;3657;49.630;11.018;2022-11-12T09:51:05;8.13;;;7.83;;
7231;SDS011;3657;49.630;11.018;2022-11-12T09:53:39;7.23;;;7.03;;
7231;SDS011;3657;49.630;11.018;2022-11-12T09:56:18;7.53;;;7.23;;
7231;SDS011;3657;49.630;11.018;2022-11-12T09:58:46;7.57;;;7.27;;
7231;SDS011;3657;49.630;11.018;2022-11-12T10:01:13;9.30;;;9.00;;
7231;SDS011;3657;49.630;11.018;2022-11-12T10:03:45;8.33;;;8.03;;
7231;SDS011;3657;49.630;11.018;2022-11-12T10:06:20;9.10;;;8.80;;
7231;SDS011;3657;49.630;11.018;2022-11-12T10:08:49;12.33;;;11.70;;
7231;SDS011;3657;49.630;11.018;2022-11-12T10:11:34;12.50;;;11.90;;
7231;SDS011;3657;49.630;11.018;2022-11-12T10:14:31;8.03;;;7.73;;
7231;SDS011;3657;49.630;11.018;2022-11-12T10:17:15;8.50;;;8.20;;
7231;SDS011;3657;49.630;11.018;2022-11-12T10:19:51;8.57;;;8.27;;
7231;SDS011;3657;49.630;11.018;2022-11-12T10:22:25;7.80;;;7.50;;
7231;SDS011;3657;49.630;11.018;2022-11-12T10:25:10;8.07;;;7.77;;
7231;SDS011;3657;49.630;11.018;2022-11-12T10:27:41;7.63;;;7.43;;
7231;SDS011;3657;49.630;11.018;2022-11-12T10:30:12;8.77;;;8.47;;
7231;SDS011;3657;49.630;11.018;2022-11-12T10:32:41;8.07;;;7.77;;
7231;SDS011;3657;49.630;11.018;2022-11-12T10:35:09;9.43;;;9.03;;
7231;SDS011;3657;49.630;11.018;2022-11-12T10:37:38;9.00;;;8.70;;
7231;SDS011;3657;49.630;11.018;2022-11-12T10:40:25;8.80;;;8.50;;
7231;SDS011;3657;49.630;11.018;2022-11-12T10:43:00;8.33;;;8.03;;
7231;SDS011;3657;49.630;11.018;2022-11-12T10:45:28;8.43;;;8.13;;
7231;SDS011;3657;49.630;11.018;2022-11-12T10:47:55;8.80;;;8.50;;
7231;SDS011;3657;49.630;11.018;2022-11-12T10:50:23;8.50;;;8.27;;
7231;SDS011;3657;49.630;11.018;2022-11-12T10:52:54;8.83;;;8.53;;
7231;SDS011;3657;49.630;11.018;2022-11-12T10:55:23;8.40;;;8.10;;
7231;SDS011;3657;49.630;11.018;2022-11-12T10:58:13;8.23;;;7.93;;
7231;SDS011;3657;49.630;11.018;2022-11-12T11:00:59;9.47;;;9.07;;
7231;SDS011;3657;49.630;11.018;2022-11-12T11:03:28;8.87;;;8.57;;
7231;SDS011;3657;49.630;11.018;2022-11-12T11:05:58;8.77;;;8.47;;
7231;SDS011;3657;49.630;11.018;2022-11-12T11:08:36;8.27;;;7.97;;
7231;SDS011;3657;49.630;11.018;2022-11-12T11:13:50;9.77;;;9.43;;
7231;SDS011;3657;49.630;11.018;2022-11-12T11:16:18;9.97;;;9.67;;
7231;SDS011;3657;49.630;11.018;2022-11-12T11:18:48;9.53;;;9.23;;
7231;SDS011;3657;49.630;11.018;2022-11-12T11:21:24;9.40;;;9.00;;
7231;SDS011;3657;49.630;11.018;2022-11-12T11:24:08;12.33;;;11.70;;
7231;SDS011;3657;49.630;11.018;2022-11-12T11:26:49;10.57;;;10.13;;
7231;SDS011;3657;49.630;11.018;2022-11-12T11:29:28;13.80;;;13.00;;
7231;SDS011;3657;49.630;11.018;2022-11-12T11:32:10;10.27;;;9.87;;
7231;SDS011;3657;49.630;11.018;2022-11-12T11:34:45;9.67;;;9.37;;
7231;SDS011;3657;49.630;11.018;2022-11-12T11:37:23;9.47;;;9.17;;
7231;SDS011;3657;49.630;11.018;2022-11-12T11:39:54;9.53;;;9.13;;
7231;SDS011;3657;49.630;11.018;2022-11-12T11:42:43;9.53;;;9.23;;
7231;SDS011;3657;49.630;11.018;2022-11-12T11:45:26;10.30;;;9.90;;
7231;SDS011;3657;49.630;11.018;2022-11-12T11:48:00;11.37;;;10.93;;
7231;SDS011;3657;49.630;11.018;2022-11-12T11:50:38;10.83;;;10.43;;
7231;SDS011;3657;49.630;11.018;2022-11-12T11:53:14;15.57;;;14.57;;
7231;SDS011;3657;49.630;11.018;2022-11-12T11:55:52;10.23;;;9.83;;
7231;SDS011;3657;49.630;11.018;2022-11-12T12:01:24;10.27;;;9.87;;
7231;SDS011;3657;49.630;11.018;2022-11-12T12:04:01;10.13;;;9.83;;
7231;SDS011;3657;49.630;11.018;2022-11-12T12:06:47;10.90;;;10.50;;
7231;SDS011;3657;49.630;11.018;2022-11-12T12:09:28;10.43;;;10.03;;
7231;SDS011;3657;49.630;11.018;2022-11-12T12:12:03;10.10;;;9.70;;
7231;SDS011;3657;49.630;11.018;2022-11-12T12:14:43;10.77;;;10.37;;
7231;SDS011;3657;49.630;11.018;2022-11-12T12:17:20;9.83;;;9.53;;
7231;SDS011;3657;49.630;11.018;2022-11-12T12:19:59;10.90;;;10.40;;
7231;SDS011;3657;49.630;11.018;2022-11-12T12:22:37;11.60;;;11.20;;
7231;SDS011;3657;49.630;11.018;2022-11-12T12:25:10;10.23;;;9.80;;
7231;SDS011;3657;49.630;11.018;2022-11-12T12:27:44;9.83;;;9.53;;
7231;SDS011;3657;49.630;11.018;2022-11-12T12:30:17;9.60;;;9.30;;
7231;SDS011;3657;49.630;11.018;2022-11-12T12:32:48;11.47;;;11.00;;
7231;SDS011;3657;49.630;11.018;2022-11-12T12:35:20;10.40;;;10.00;;
7231;SDS011;3657;49.630;11.018;2022-11-12T12:37:51;10.23;;;9.83;;
7231;SDS011;3657;49.630;11.018;2022-11-12T12:40:25;10.97;;;10.13;;
7231;SDS011;3657;49.630;11.018;2022-11-12T12:42:59;16.00;;;15.10;;
7231;SDS011;3657;49.630;11.018;2022-11-12T12:45:33;10.17;;;9.80;;
7231;SDS011;3657;49.630;11.018;2022-11-12T12:48:06;13.20;;;12.60;;
7231;SDS011;3657;49.630;11.018;2022-11-12T12:50:38;13.17;;;12.47;;
7231;SDS011;3657;49.630;11.018;2022-11-12T12:53:14;10.97;;;10.40;;
7231;SDS011;3657;49.630;11.018;2022-11-12T12:55:43;13.60;;;13.00;;
7231;SDS011;3657;49.630;11.018;2022-11-12T12:58:15;11.53;;;11.00;;
7231;SDS011;3657;49.630;11.018;2022-11-12T13:00:47;10.43;;;10.03;;
7231;SDS011;3657;49.630;11.018;2022-11-12T13:06:26;10.17;;;9.77;;
7231;SDS011;3657;49.630;11.018;2022-11-12T13:08:57;10.23;;;9.90;;
7231;SDS011;3657;49.630;11.018;2022-11-12T13:11:45;15.20;;;14.13;;
7231;SDS011;3657;49.630;11.018;2022-11-12T13:14:49;15.73;;;14.93;;
7231;SDS011;3657;49.630;11.018;2022-11-12T13:17:41;15.50;;;14.77;;
7231;SDS011;3657;49.630;11.018;2022-11-12T13:20:28;16.03;;;15.13;;
7231;SDS011;3657;49.630;11.018;2022-11-12T13:23:01;15.13;;;14.33;;
7231;SDS011;3657;49.630;11.018;2022-11-12T13:25:33;17.17;;;16.17;;
7231;SDS011;3657;49.630;11.018;2022-11-12T13:28:03;10.77;;;10.37;;
7231;SDS011;3657;49.630;11.018;2022-11-12T13:30:56;10.17;;;9.77;;
7231;SDS011;3657;49.630;11.018;2022-11-12T13:33:33;12.53;;;11.93;;
7231;SDS011;3657;49.630;11.018;2022-11-12T13:38:54;9.83;;;9.43;;
7231;SDS011;3657;49.630;11.018;2022-11-12T13:41:36;10.67;;;10.17;;
7231;SDS011;3657;49.630;11.018;2022-11-12T13:44:20;10.60;;;10.20;;
7231;SDS011;3657;49.630;11.018;2022-11-12T13:46:49;16.17;;;15.13;;
7231;SDS011;3657;49.630;11.018;2022-11-12T13:49:17;12.47;;;11.97;;
7231;SDS011;3657;49.630;11.018;2022-11-12T13:51:46;11.90;;;11.47;;
7231;SDS011;3657;49.630;11.018;2022-11-12T13:54:23;17.47;;;16.37;;
7231;SDS011;3657;49.630;11.018;2022-11-12T13:56:55;13.10;;;12.50;;
7231;SDS011;3657;49.630;11.018;2022-11-12T13:59:23;14.03;;;13.27;;
7231;SDS011;3657;49.630;11.018;2022-11-12T14:01:50;15.60;;;14.60;;
7231;SDS011;3657;49.630;11.018;2022-11-12T14:04:19;13.37;;;12.77;;
7231;SDS011;3657;49.630;11.018;2022-11-12T14:06:50;14.33;;;13.53;;
7231;SDS011;3657;49.630;11.018;2022-11-12T14:09:25;13.40;;;12.73;;
7231;SDS011;3657;49.630;11.018;2022-11-12T14:15:11;13.77;;;13.17;;
7231;SDS011;3657;49.630;11.018;2022-11-12T14:17:46;14.97;;;14.10;;
7231;SDS011;3657;49.630;11.018;2022-11-12T14:20:25;14.27;;;13.57;;
7231;SDS011;3657;49.630;11.018;2022-11-12T14:23:03;14.30;;;13.60;;
7231;SDS011;3657;49.630;11.018;2022-11-12T14:25:44;13.70;;;13.10;;
7231;SDS011;3657;49.630;11.018;2022-11-12T14:28:22;13.00;;;12.40;;
7231;SDS011;3657;49.630;11.018;2022-11-12T14:30:53;13.30;;;12.70;;
7231;SDS011;3657;49.630;11.018;2022-11-12T14:33:21;13.63;;;12.93;;
7231;SDS011;3657;49.630;11.018;2022-11-12T14:35:50;13.20;;;12.67;;
7231;SDS011;3657;49.630;11.018;2022-11-12T14:38:19;11.23;;;10.73;;
7231;SDS011;3657;49.630;11.018;2022-11-12T14:40:49;13.57;;;12.90;;
7231;SDS011;3657;49.630;11.018;2022-11-12T14:43:19;15.97;;;15.07;;
7231;SDS011;3657;49.630;11.018;2022-11-12T14:45:50;14.47;;;13.73;;
7231;SDS011;3657;49.630;11.018;2022-11-12T14:48:18;13.47;;;12.73;;
7231;SDS011;3657;49.630;11.018;2022-11-12T14:50:45;13.60;;;13.00;;
7231;SDS011;3657;49.630;11.018;2022-11-12T14:53:18;13.97;;;13.27;;
7231;SDS011;3657;49.630;11.018;2022-11-12T14:55:52;13.97;;;13.17;;
7231;SDS011;3657;49.630;11.018;2022-11-12T14:58:19;13.70;;;13.07;;
7231;SDS011;3657;49.630;11.018;2022-11-12T15:00:48;18.33;;;17.23;;
7231;SDS011;3657;49.630;11.018;2022-11-12T15:03:16;13.37;;;12.77;;
7231;SDS011;3657;49.630;11.018;2022-11-12T15:05:51;14.53;;;13.93;;
7231;SDS011;3657;49.630;11.018;2022-11-12T15:08:28;14.50;;;13.87;;
7231;SDS011;3657;49.630;11.018;2022-11-12T15:10:56;15.77;;;14.80;;
7231;SDS011;3657;49.630;11.018;2022-11-12T15:13:39;13.97;;;13.27;;
7231;SDS011;3657;49.630;11.018;2022-11-12T15:16:07;14.07;;;13.37;;
7231;SDS011;3657;49.630;11.018;2022-11-12T15:18:36;14.53;;;13.83;;